sensor_id;sensor_type;location;lat;lon;timestamp;temperature;humidity
25438;DHT22;13364;49.084;9.978;2022-09-23T00:05:22;6.90;99.90
25438;DHT22;13364;49.084;9.978;2022-09-23T00:07:49;6.80;99.90
25438;DHT22;13364;49.084;9.978;2022-09-23T00:10:16;6.80;99.90
25438;DHT22;13364;49.084;9.978;2022-09-23T00:12:43;6.70;99.90
25438;DHT22;13364;49.084;9.978;2022-09-23T00:15:11;7.30;99.90
25438;DHT22;13364;49.084;9.978;2022-09-23T00:17:38;6.70;99.90
25438;DHT22;13364;49.084;9.978;2022-09-23T00:20:07;6.90;99.90
25438;DHT22;13364;49.084;9.978;2022-09-23T00:22:35;6.70;99.90
25438;DHT22;13364;49.084;9.978;2022-09-23T00:25:07;6.70;99.90
25438;DHT22;13364;49.084;9.978;2022-09-23T00:27:35;6.60;99.90
25438;DHT22;13364;49.084;9.978;2022-09-23T00:30:04;6.90;99.90
25438;DHT22;13364;49.084;9.978;2022-09-23T00:32:32;6.60;99.90
25438;DHT22;13364;49.084;9.978;2022-09-23T00:34:59;6.60;99.90
25438;DHT22;13364;49.084;9.978;2022-09-23T00:37:27;6.60;99.90
25438;DHT22;13364;49.084;9.978;2022-09-23T00:39:54;6.50;99.90
25438;DHT22;13364;49.084;9.978;2022-09-23T00:42:22;6.80;99.90
25438;DHT22;13364;49.084;9.978;2022-09-23T00:44:52;7.00;99.90
25438;DHT22;13364;49.084;9.978;2022-09-23T00:47:33;6.50;99.90
25438;DHT22;13364;49.084;9.978;2022-09-23T00:52:35;6.50;99.90
25438;DHT22;13364;49.084;9.978;2022-09-23T00:55:09;6.80;99.90
25438;DHT22;13364;49.084;9.978;2022-09-23T00:57:37;6.40;99.90
25438;DHT22;13364;49.084;9.978;2022-09-23T01:00:06;6.90;99.90
25438;DHT22;13364;49.084;9.978;2022-09-23T01:02:34;6.40;99.90
25438;DHT22;13364;49.084;9.978;2022-09-23T01:05:05;6.40;99.90
25438;DHT22;13364;49.084;9.978;2022-09-23T01:07:32;6.40;99.90
25438;DHT22;13364;49.084;9.978;2022-09-23T01:10:01;6.40;99.90
25438;DHT22;13364;49.084;9.978;2022-09-23T01:12:48;6.40;99.90
25438;DHT22;13364;49.084;9.978;2022-09-23T01:24:45;6.30;99.90
25438;DHT22;13364;49.084;9.978;2022-09-23T01:30:08;6.20;99.90
25438;DHT22;13364;49.084;9.978;2022-09-23T01:32:57;6.20;99.90
25438;DHT22;13364;49.084;9.978;2022-09-23T01:35:37;6.20;99.90
25438;DHT22;13364;49.084;9.978;2022-09-23T01:41:06;6.10;99.90
25438;DHT22;13364;49.084;9.978;2022-09-23T01:43:44;6.10;99.90
25438;DHT22;13364;49.084;9.978;2022-09-23T01:46:23;8.90;99.90
25438;DHT22;13364;49.084;9.978;2022-09-23T01:49:02;6.10;99.90
25438;DHT22;13364;49.084;9.978;2022-09-23T01:51:35;8.30;99.90
25438;DHT22;13364;49.084;9.978;2022-09-23T01:54:10;6.50;99.90
25438;DHT22;13364;49.084;9.978;2022-09-23T01:56:49;7.70;99.90
25438;DHT22;13364;49.084;9.978;2022-09-23T01:59:26;7.40;99.90
25438;DHT22;13364;49.084;9.978;2022-09-23T02:02:15;6.20;99.90
25438;DHT22;13364;49.084;9.978;2022-09-23T02:04:49;6.00;99.90
25438;DHT22;13364;49.084;9.978;2022-09-23T02:12:37;6.00;99.90
25438;DHT22;13364;49.084;9.978;2022-09-23T02:15:16;6.40;99.90
25438;DHT22;13364;49.084;9.978;2022-09-23T02:17:58;6.00;99.90
25438;DHT22;13364;49.084;9.978;2022-09-23T02:20:31;6.00;99.90
25438;DHT22;13364;49.084;9.978;2022-09-23T02:23:04;8.40;99.90
25438;DHT22;13364;49.084;9.978;2022-09-23T02:25:49;6.10;99.90
25438;DHT22;13364;49.084;9.978;2022-09-23T02:31:35;6.10;99.90
25438;DHT22;13364;49.084;9.978;2022-09-23T02:34:34;6.10;99.90
25438;DHT22;13364;49.084;9.978;2022-09-23T02:37:13;6.10;99.90
25438;DHT22;13364;49.084;9.978;2022-09-23T02:39:59;8.50;99.90
25438;DHT22;13364;49.084;9.978;2022-09-23T02:43:01;6.00;99.90
25438;DHT22;13364;49.084;9.978;2022-09-23T02:45:30;6.00;99.90
25438;DHT22;13364;49.084;9.978;2022-09-23T02:48:17;7.50;99.90
25438;DHT22;13364;49.084;9.978;2022-09-23T02:50:46;5.90;99.90
25438;DHT22;13364;49.084;9.978;2022-09-23T02:53:13;6.60;99.90
25438;DHT22;13364;49.084;9.978;2022-09-23T02:55:42;7.20;99.90
25438;DHT22;13364;49.084;9.978;2022-09-23T02:58:10;7.60;99.90
25438;DHT22;13364;49.084;9.978;2022-09-23T03:13:34;5.70;99.90
25438;DHT22;13364;49.084;9.978;2022-09-23T03:22:01;5.60;99.90
25438;DHT22;13364;49.084;9.978;2022-09-23T03:24:32;5.60;99.90
25438;DHT22;13364;49.084;9.978;2022-09-23T03:27:04;6.00;99.90
25438;DHT22;13364;49.084;9.978;2022-09-23T03:29:31;5.50;99.90
25438;DHT22;13364;49.084;9.978;2022-09-23T03:32:03;7.00;99.90
25438;DHT22;13364;49.084;9.978;2022-09-23T03:34:35;5.50;99.90
25438;DHT22;13364;49.084;9.978;2022-09-23T03:39:49;6.90;99.90
25438;DHT22;13364;49.084;9.978;2022-09-23T03:42:26;6.80;99.90
25438;DHT22;13364;49.084;9.978;2022-09-23T03:44:56;7.30;99.90
25438;DHT22;13364;49.084;9.978;2022-09-23T03:47:26;5.80;99.90
25438;DHT22;13364;49.084;9.978;2022-09-23T03:49:53;7.50;99.90
25438;DHT22;13364;49.084;9.978;2022-09-23T03:52:23;7.00;99.90
25438;DHT22;13364;49.084;9.978;2022-09-23T03:54:50;6.50;99.90
25438;DHT22;13364;49.084;9.978;2022-09-23T03:57:19;7.20;99.90
25438;DHT22;13364;49.084;9.978;2022-09-23T03:59:49;7.50;99.90
25438;DHT22;13364;49.084;9.978;2022-09-23T04:02:17;7.70;99.90
25438;DHT22;13364;49.084;9.978;2022-09-23T04:05:14;5.90;99.90
25438;DHT22;13364;49.084;9.978;2022-09-23T04:07:41;5.40;99.90
25438;DHT22;13364;49.084;9.978;2022-09-23T04:10:09;6.00;99.90
25438;DHT22;13364;49.084;9.978;2022-09-23T04:12:36;6.40;99.90
25438;DHT22;13364;49.084;9.978;2022-09-23T04:15:04;5.30;99.90
25438;DHT22;13364;49.084;9.978;2022-09-23T04:17:32;5.40;99.90
25438;DHT22;13364;49.084;9.978;2022-09-23T04:19:59;7.80;99.90
25438;DHT22;13364;49.084;9.978;2022-09-23T04:22:26;5.30;99.90
25438;DHT22;13364;49.084;9.978;2022-09-23T04:24:53;6.90;99.90
25438;DHT22;13364;49.084;9.978;2022-09-23T04:27:20;6.90;99.90
25438;DHT22;13364;49.084;9.978;2022-09-23T04:29:47;6.90;99.90
25438;DHT22;13364;49.084;9.978;2022-09-23T04:32:14;5.40;99.90
25438;DHT22;13364;49.084;9.978;2022-09-23T04:34:41;5.30;99.90
25438;DHT22;13364;49.084;9.978;2022-09-23T04:37:08;7.70;99.90
25438;DHT22;13364;49.084;9.978;2022-09-23T04:39:36;7.90;99.90
25438;DHT22;13364;49.084;9.978;2022-09-23T04:42:03;6.60;99.90
25438;DHT22;13364;49.084;9.978;2022-09-23T04:44:30;5.30;99.90
25438;DHT22;13364;49.084;9.978;2022-09-23T04:46:57;7.60;99.90
25438;DHT22;13364;49.084;9.978;2022-09-23T04:49:24;6.40;99.90
25438;DHT22;13364;49.084;9.978;2022-09-23T04:51:51;5.30;99.90
25438;DHT22;13364;49.084;9.978;2022-09-23T04:54:19;7.30;99.90
25438;DHT22;13364;49.084;9.978;2022-09-23T04:56:46;6.90;99.90
25438;DHT22;13364;49.084;9.978;2022-09-23T04:59:13;6.90;99.90
25438;DHT22;13364;49.084;9.978;2022-09-23T05:01:41;7.50;99.90
25438;DHT22;13364;49.084;9.978;2022-09-23T05:04:10;7.50;99.90
25438;DHT22;13364;49.084;9.978;2022-09-23T05:06:40;7.50;99.90
25438;DHT22;13364;49.084;9.978;2022-09-23T05:09:13;7.30;99.90
25438;DHT22;13364;49.084;9.978;2022-09-23T05:11:42;7.30;99.90
25438;DHT22;13364;49.084;9.978;2022-09-23T05:14:09;7.30;99.90
25438;DHT22;13364;49.084;9.978;2022-09-23T05:16:36;7.30;99.90
25438;DHT22;13364;49.084;9.978;2022-09-23T05:19:03;7.60;99.90
25438;DHT22;13364;49.084;9.978;2022-09-23T05:21:31;5.20;99.90
25438;DHT22;13364;49.084;9.978;2022-09-23T05:23:58;7.00;99.90
25438;DHT22;13364;49.084;9.978;2022-09-23T05:26:31;6.60;99.90
25438;DHT22;13364;49.084;9.978;2022-09-23T05:28:58;6.90;99.90
25438;DHT22;13364;49.084;9.978;2022-09-23T05:31:27;6.20;99.90
25438;DHT22;13364;49.084;9.978;2022-09-23T05:34:05;6.70;99.90
25438;DHT22;13364;49.084;9.978;2022-09-23T05:36:34;6.20;99.90
25438;DHT22;13364;49.084;9.978;2022-09-23T05:39:05;6.20;99.90
25438;DHT22;13364;49.084;9.978;2022-09-23T05:41:32;5.10;99.90
25438;DHT22;13364;49.084;9.978;2022-09-23T05:44:00;5.90;99.90
25438;DHT22;13364;49.084;9.978;2022-09-23T05:46:29;5.20;99.90
25438;DHT22;13364;49.084;9.978;2022-09-23T05:48:57;6.80;99.90
25438;DHT22;13364;49.084;9.978;2022-09-23T05:51:29;5.00;99.90
25438;DHT22;13364;49.084;9.978;2022-09-23T05:53:58;7.10;99.90
25438;DHT22;13364;49.084;9.978;2022-09-23T05:56:26;6.90;99.90
25438;DHT22;13364;49.084;9.978;2022-09-23T05:58:55;6.60;99.90
25438;DHT22;13364;49.084;9.978;2022-09-23T06:01:28;5.70;99.90
25438;DHT22;13364;49.084;9.978;2022-09-23T06:03:58;7.80;99.90
25438;DHT22;13364;49.084;9.978;2022-09-23T06:06:29;6.40;99.90
25438;DHT22;13364;49.084;9.978;2022-09-23T06:08:56;7.50;99.90
25438;DHT22;13364;49.084;9.978;2022-09-23T06:11:25;6.80;99.90
25438;DHT22;13364;49.084;9.978;2022-09-23T06:13:56;5.50;99.90
25438;DHT22;13364;49.084;9.978;2022-09-23T06:16:28;6.60;99.90
25438;DHT22;13364;49.084;9.978;2022-09-23T06:18:56;7.40;99.90
25438;DHT22;13364;49.084;9.978;2022-09-23T06:21:31;7.90;99.90
25438;DHT22;13364;49.084;9.978;2022-09-23T06:23:58;6.20;99.90
25438;DHT22;13364;49.084;9.978;2022-09-23T06:26:28;6.30;99.90
25438;DHT22;13364;49.084;9.978;2022-09-23T06:29:00;6.50;99.90
25438;DHT22;13364;49.084;9.978;2022-09-23T06:31:28;7.90;99.90
25438;DHT22;13364;49.084;9.978;2022-09-23T06:33:56;8.10;99.90
25438;DHT22;13364;49.084;9.978;2022-09-23T06:36:37;6.60;99.90
25438;DHT22;13364;49.084;9.978;2022-09-23T06:39:11;8.80;99.90
25438;DHT22;13364;49.084;9.978;2022-09-23T06:41:38;7.60;99.90
25438;DHT22;13364;49.084;9.978;2022-09-23T06:44:10;9.00;99.90
25438;DHT22;13364;49.084;9.978;2022-09-23T06:46:38;8.60;99.90
25438;DHT22;13364;49.084;9.978;2022-09-23T06:49:05;8.70;99.90
25438;DHT22;13364;49.084;9.978;2022-09-23T06:51:32;8.80;99.90
25438;DHT22;13364;49.084;9.978;2022-09-23T06:53:59;6.70;99.90
25438;DHT22;13364;49.084;9.978;2022-09-23T06:56:26;8.60;99.90
25438;DHT22;13364;49.084;9.978;2022-09-23T06:58:53;8.10;99.90
25438;DHT22;13364;49.084;9.978;2022-09-23T07:01:20;8.40;99.90
25438;DHT22;13364;49.084;9.978;2022-09-23T07:03:49;8.70;99.90
25438;DHT22;13364;49.084;9.978;2022-09-23T07:06:16;9.50;99.90
25438;DHT22;13364;49.084;9.978;2022-09-23T07:08:44;7.60;99.90
25438;DHT22;13364;49.084;9.978;2022-09-23T07:11:14;9.00;99.90
25438;DHT22;13364;49.084;9.978;2022-09-23T07:13:41;9.70;99.90
25438;DHT22;13364;49.084;9.978;2022-09-23T07:16:09;8.90;99.90
25438;DHT22;13364;49.084;9.978;2022-09-23T07:18:37;10.10;99.90
25438;DHT22;13364;49.084;9.978;2022-09-23T07:21:10;8.80;99.90
25438;DHT22;13364;49.084;9.978;2022-09-23T07:23:42;8.60;99.90
25438;DHT22;13364;49.084;9.978;2022-09-23T07:26:09;9.70;99.90
25438;DHT22;13364;49.084;9.978;2022-09-23T07:28:37;9.80;99.90
25438;DHT22;13364;49.084;9.978;2022-09-23T07:31:07;10.70;99.90
25438;DHT22;13364;49.084;9.978;2022-09-23T07:33:36;10.00;99.90
25438;DHT22;13364;49.084;9.978;2022-09-23T07:36:09;10.90;99.90
25438;DHT22;13364;49.084;9.978;2022-09-23T07:38:37;8.50;99.90
25438;DHT22;13364;49.084;9.978;2022-09-23T07:41:12;10.10;99.90
25438;DHT22;13364;49.084;9.978;2022-09-23T07:43:40;10.60;99.90
25438;DHT22;13364;49.084;9.978;2022-09-23T07:46:10;8.90;99.90
25438;DHT22;13364;49.084;9.978;2022-09-23T07:48:39;11.40;99.90
25438;DHT22;13364;49.084;9.978;2022-09-23T07:51:13;10.70;99.90
25438;DHT22;13364;49.084;9.978;2022-09-23T07:53:44;10.70;99.90
25438;DHT22;13364;49.084;9.978;2022-09-23T07:56:12;11.80;99.90
25438;DHT22;13364;49.084;9.978;2022-09-23T07:58:39;11.70;99.90
25438;DHT22;13364;49.084;9.978;2022-09-23T08:01:08;12.10;99.90
25438;DHT22;13364;49.084;9.978;2022-09-23T08:03:36;11.90;99.90
25438;DHT22;13364;49.084;9.978;2022-09-23T08:06:07;10.70;99.90
25438;DHT22;13364;49.084;9.978;2022-09-23T08:08:36;10.50;99.90
25438;DHT22;13364;49.084;9.978;2022-09-23T08:11:08;11.80;99.90
25438;DHT22;13364;49.084;9.978;2022-09-23T08:13:36;10.80;99.90
25438;DHT22;13364;49.084;9.978;2022-09-23T08:16:03;12.20;99.90
25438;DHT22;13364;49.084;9.978;2022-09-23T08:18:30;11.20;99.90
25438;DHT22;13364;49.084;9.978;2022-09-23T08:20:58;11.50;99.90
25438;DHT22;13364;49.084;9.978;2022-09-23T08:23:25;11.90;99.90
25438;DHT22;13364;49.084;9.978;2022-09-23T08:25:57;11.80;99.90
25438;DHT22;13364;49.084;9.978;2022-09-23T08:28:26;12.00;99.90
25438;DHT22;13364;49.084;9.978;2022-09-23T08:30:54;12.20;99.90
25438;DHT22;13364;49.084;9.978;2022-09-23T08:33:21;12.40;99.90
25438;DHT22;13364;49.084;9.978;2022-09-23T08:35:50;12.60;99.90
25438;DHT22;13364;49.084;9.978;2022-09-23T08:38:18;12.80;99.90
25438;DHT22;13364;49.084;9.978;2022-09-23T08:40:47;12.90;99.90
25438;DHT22;13364;49.084;9.978;2022-09-23T08:43:17;13.10;99.90
25438;DHT22;13364;49.084;9.978;2022-09-23T08:45:45;13.30;99.90
25438;DHT22;13364;49.084;9.978;2022-09-23T08:48:15;13.40;99.90
25438;DHT22;13364;49.084;9.978;2022-09-23T08:50:50;13.50;99.90
25438;DHT22;13364;49.084;9.978;2022-09-23T08:53:23;13.70;99.90
25438;DHT22;13364;49.084;9.978;2022-09-23T08:55:53;13.80;99.90
25438;DHT22;13364;49.084;9.978;2022-09-23T08:58:41;13.90;99.90
25438;DHT22;13364;49.084;9.978;2022-09-23T09:01:33;14.00;99.90
25438;DHT22;13364;49.084;9.978;2022-09-23T09:10:16;14.30;99.90
25438;DHT22;13364;49.084;9.978;2022-09-23T09:13:01;14.40;99.90
25438;DHT22;13364;49.084;9.978;2022-09-23T09:15:28;14.60;99.90
25438;DHT22;13364;49.084;9.978;2022-09-23T09:18:05;14.70;99.90
25438;DHT22;13364;49.084;9.978;2022-09-23T09:23:26;14.90;99.90
25438;DHT22;13364;49.084;9.978;2022-09-23T09:25:58;14.90;99.90
25438;DHT22;13364;49.084;9.978;2022-09-23T09:39:38;15.40;99.90
25438;DHT22;13364;49.084;9.978;2022-09-23T09:42:05;15.40;99.90
25438;DHT22;13364;49.084;9.978;2022-09-23T09:44:59;15.50;99.90
25438;DHT22;13364;49.084;9.978;2022-09-23T09:50:10;15.90;99.90
25438;DHT22;13364;49.084;9.978;2022-09-23T09:52:37;16.00;99.90
25438;DHT22;13364;49.084;9.978;2022-09-23T09:57:50;16.20;99.90
25438;DHT22;13364;49.084;9.978;2022-09-23T10:08:33;16.50;99.90
25438;DHT22;13364;49.084;9.978;2022-09-23T10:11:04;16.60;99.90
25438;DHT22;13364;49.084;9.978;2022-09-23T10:13:32;16.60;99.90
25438;DHT22;13364;49.084;9.978;2022-09-23T10:16:01;16.60;99.90
25438;DHT22;13364;49.084;9.978;2022-09-23T10:21:10;16.80;99.90
25438;DHT22;13364;49.084;9.978;2022-09-23T10:23:46;16.90;99.90
25438;DHT22;13364;49.084;9.978;2022-09-23T10:26:14;17.00;99.90
25438;DHT22;13364;49.084;9.978;2022-09-23T10:28:51;17.10;99.90
25438;DHT22;13364;49.084;9.978;2022-09-23T10:33:53;17.30;99.90
25438;DHT22;13364;49.084;9.978;2022-09-23T10:36:21;17.30;99.90
25438;DHT22;13364;49.084;9.978;2022-09-23T10:38:52;17.30;99.90
25438;DHT22;13364;49.084;9.978;2022-09-23T10:41:45;17.40;99.90
25438;DHT22;13364;49.084;9.978;2022-09-23T10:47:55;17.60;99.90
25438;DHT22;13364;49.084;9.978;2022-09-23T10:53:28;17.50;99.90
25438;DHT22;13364;49.084;9.978;2022-09-23T10:58:49;17.60;99.90
25438;DHT22;13364;49.084;9.978;2022-09-23T11:09:42;18.00;99.90
25438;DHT22;13364;49.084;9.978;2022-09-23T11:14:53;18.10;99.90
25438;DHT22;13364;49.084;9.978;2022-09-23T11:18:00;18.10;99.90
25438;DHT22;13364;49.084;9.978;2022-09-23T11:40:31;18.40;99.90
25438;DHT22;13364;49.084;9.978;2022-09-23T11:48:40;18.70;99.90
25438;DHT22;13364;49.084;9.978;2022-09-23T11:51:15;18.70;99.90
25438;DHT22;13364;49.084;9.978;2022-09-23T11:57:26;18.80;99.90
25438;DHT22;13364;49.084;9.978;2022-09-23T12:00:17;18.90;99.90
25438;DHT22;13364;49.084;9.978;2022-09-23T12:03:05;19.10;99.90
25438;DHT22;13364;49.084;9.978;2022-09-23T12:05:43;19.30;99.90
25438;DHT22;13364;49.084;9.978;2022-09-23T12:14:00;19.50;99.90
25438;DHT22;13364;49.084;9.978;2022-09-23T12:27:49;20.00;99.90
25438;DHT22;13364;49.084;9.978;2022-09-23T12:30:31;20.00;99.90
25438;DHT22;13364;49.084;9.978;2022-09-23T12:33:07;20.00;99.90
25438;DHT22;13364;49.084;9.978;2022-09-23T12:35:45;20.10;99.90
25438;DHT22;13364;49.084;9.978;2022-09-23T12:38:16;20.20;99.90
25438;DHT22;13364;49.084;9.978;2022-09-23T12:40:45;20.20;99.90
25438;DHT22;13364;49.084;9.978;2022-09-23T12:43:27;20.30;99.90
25438;DHT22;13364;49.084;9.978;2022-09-23T12:46:16;20.40;99.90
25438;DHT22;13364;49.084;9.978;2022-09-23T12:51:28;20.80;99.90
25438;DHT22;13364;49.084;9.978;2022-09-23T12:53:57;20.90;99.90
25438;DHT22;13364;49.084;9.978;2022-09-23T12:56:27;20.80;99.90
25438;DHT22;13364;49.084;9.978;2022-09-23T13:01:34;20.80;99.90
25438;DHT22;13364;49.084;9.978;2022-09-23T13:04:31;20.70;99.90
25438;DHT22;13364;49.084;9.978;2022-09-23T13:07:23;20.60;99.90
25438;DHT22;13364;49.084;9.978;2022-09-23T13:09:55;20.60;99.90
25438;DHT22;13364;49.084;9.978;2022-09-23T13:12:31;20.70;99.90
25438;DHT22;13364;49.084;9.978;2022-09-23T13:15:03;20.90;99.90
25438;DHT22;13364;49.084;9.978;2022-09-23T13:17:37;21.10;99.90
25438;DHT22;13364;49.084;9.978;2022-09-23T13:20:31;21.20;99.90
25438;DHT22;13364;49.084;9.978;2022-09-23T13:23:19;21.30;99.90
25438;DHT22;13364;49.084;9.978;2022-09-23T13:25:47;21.30;99.90
25438;DHT22;13364;49.084;9.978;2022-09-23T13:28:37;21.30;99.90
25438;DHT22;13364;49.084;9.978;2022-09-23T13:31:12;21.50;99.90
25438;DHT22;13364;49.084;9.978;2022-09-23T13:33:50;21.50;99.90
25438;DHT22;13364;49.084;9.978;2022-09-23T13:36:20;21.30;99.90
25438;DHT22;13364;49.084;9.978;2022-09-23T13:38:47;21.30;99.90
25438;DHT22;13364;49.084;9.978;2022-09-23T13:43:44;21.40;99.90
25438;DHT22;13364;49.084;9.978;2022-09-23T13:49:42;21.60;99.90
25438;DHT22;13364;49.084;9.978;2022-09-23T13:52:25;21.50;99.90
25438;DHT22;13364;49.084;9.978;2022-09-23T13:54:52;21.30;99.90
25438;DHT22;13364;49.084;9.978;2022-09-23T13:57:34;21.30;99.90
25438;DHT22;13364;49.084;9.978;2022-09-23T14:00:21;21.20;99.90
25438;DHT22;13364;49.084;9.978;2022-09-23T14:02:49;21.00;99.90
25438;DHT22;13364;49.084;9.978;2022-09-23T14:05:21;20.80;99.90
25438;DHT22;13364;49.084;9.978;2022-09-23T14:07:50;20.70;99.90
25438;DHT22;13364;49.084;9.978;2022-09-23T14:10:20;20.60;99.90
25438;DHT22;13364;49.084;9.978;2022-09-23T14:12:48;20.30;99.90
25438;DHT22;13364;49.084;9.978;2022-09-23T14:15:16;20.20;99.90
25438;DHT22;13364;49.084;9.978;2022-09-23T14:18:02;20.30;99.90
25438;DHT22;13364;49.084;9.978;2022-09-23T14:20:30;20.30;99.90
25438;DHT22;13364;49.084;9.978;2022-09-23T14:23:10;20.40;99.90
25438;DHT22;13364;49.084;9.978;2022-09-23T14:25:38;20.40;99.90
25438;DHT22;13364;49.084;9.978;2022-09-23T14:28:05;20.40;99.90
25438;DHT22;13364;49.084;9.978;2022-09-23T14:30:33;20.40;99.90
25438;DHT22;13364;49.084;9.978;2022-09-23T14:37:52;20.30;99.90
25438;DHT22;13364;49.084;9.978;2022-09-23T14:40:54;20.00;99.90
25438;DHT22;13364;49.084;9.978;2022-09-23T14:46:55;19.70;99.90
25438;DHT22;13364;49.084;9.978;2022-09-23T14:49:23;19.80;99.90
25438;DHT22;13364;49.084;9.978;2022-09-23T14:54:29;19.30;99.90
25438;DHT22;13364;49.084;9.978;2022-09-23T14:56:59;19.20;99.90
25438;DHT22;13364;49.084;9.978;2022-09-23T14:59:35;19.30;99.90
25438;DHT22;13364;49.084;9.978;2022-09-23T15:05:20;19.30;99.90
25438;DHT22;13364;49.084;9.978;2022-09-23T15:07:51;19.30;99.90
25438;DHT22;13364;49.084;9.978;2022-09-23T15:10:30;19.20;99.90
25438;DHT22;13364;49.084;9.978;2022-09-23T15:13:07;19.10;99.90
25438;DHT22;13364;49.084;9.978;2022-09-23T15:15:35;18.90;99.90
25438;DHT22;13364;49.084;9.978;2022-09-23T15:18:14;18.80;99.90
25438;DHT22;13364;49.084;9.978;2022-09-23T15:21:10;18.80;99.90
25438;DHT22;13364;49.084;9.978;2022-09-23T15:26:16;18.70;99.90
25438;DHT22;13364;49.084;9.978;2022-09-23T15:28:44;18.50;99.90
25438;DHT22;13364;49.084;9.978;2022-09-23T15:31:16;18.40;99.90
25438;DHT22;13364;49.084;9.978;2022-09-23T15:33:44;18.20;99.90
25438;DHT22;13364;49.084;9.978;2022-09-23T15:36:23;18.20;99.90
25438;DHT22;13364;49.084;9.978;2022-09-23T15:38:54;18.00;99.90
25438;DHT22;13364;49.084;9.978;2022-09-23T15:41:24;17.90;99.90
25438;DHT22;13364;49.084;9.978;2022-09-23T15:47:18;17.70;99.90
25438;DHT22;13364;49.084;9.978;2022-09-23T15:49:47;17.50;99.90
25438;DHT22;13364;49.084;9.978;2022-09-23T15:52:14;17.40;99.90
25438;DHT22;13364;49.084;9.978;2022-09-23T15:54:44;17.30;99.90
25438;DHT22;13364;49.084;9.978;2022-09-23T15:57:11;17.30;99.90
25438;DHT22;13364;49.084;9.978;2022-09-23T15:59:38;17.20;99.90
25438;DHT22;13364;49.084;9.978;2022-09-23T16:02:16;17.10;99.90
25438;DHT22;13364;49.084;9.978;2022-09-23T16:04:44;17.00;99.90
25438;DHT22;13364;49.084;9.978;2022-09-23T16:07:18;17.00;99.90
25438;DHT22;13364;49.084;9.978;2022-09-23T16:09:45;16.90;99.90
25438;DHT22;13364;49.084;9.978;2022-09-23T16:12:12;16.90;99.90
25438;DHT22;13364;49.084;9.978;2022-09-23T16:14:40;16.90;99.90
25438;DHT22;13364;49.084;9.978;2022-09-23T16:17:10;16.80;99.90
25438;DHT22;13364;49.084;9.978;2022-09-23T16:19:38;16.70;99.90
25438;DHT22;13364;49.084;9.978;2022-09-23T16:22:06;16.60;99.90
25438;DHT22;13364;49.084;9.978;2022-09-23T16:24:33;16.60;99.90
25438;DHT22;13364;49.084;9.978;2022-09-23T16:27:03;16.50;99.90
25438;DHT22;13364;49.084;9.978;2022-09-23T16:29:33;16.40;99.90
25438;DHT22;13364;49.084;9.978;2022-09-23T16:32:00;16.30;99.90
25438;DHT22;13364;49.084;9.978;2022-09-23T16:34:28;16.30;99.90
25438;DHT22;13364;49.084;9.978;2022-09-23T16:36:55;16.20;99.90
25438;DHT22;13364;49.084;9.978;2022-09-23T16:39:22;16.10;99.90
25438;DHT22;13364;49.084;9.978;2022-09-23T16:44:44;16.00;99.90
25438;DHT22;13364;49.084;9.978;2022-09-23T16:47:11;15.90;99.90
25438;DHT22;13364;49.084;9.978;2022-09-23T16:49:38;15.80;99.90
25438;DHT22;13364;49.084;9.978;2022-09-23T16:52:05;15.70;99.90
25438;DHT22;13364;49.084;9.978;2022-09-23T16:54:32;15.60;99.90
25438;DHT22;13364;49.084;9.978;2022-09-23T16:57:03;15.50;99.90
25438;DHT22;13364;49.084;9.978;2022-09-23T16:59:29;15.40;99.90
25438;DHT22;13364;49.084;9.978;2022-09-23T17:02:16;15.30;99.90
25438;DHT22;13364;49.084;9.978;2022-09-23T17:05:02;15.20;99.90
25438;DHT22;13364;49.084;9.978;2022-09-23T17:07:29;15.20;99.90
25438;DHT22;13364;49.084;9.978;2022-09-23T17:09:57;15.20;99.90
25438;DHT22;13364;49.084;9.978;2022-09-23T17:12:27;15.10;99.90
25438;DHT22;13364;49.084;9.978;2022-09-23T17:14:54;15.00;99.90
25438;DHT22;13364;49.084;9.978;2022-09-23T17:17:21;14.90;99.90
25438;DHT22;13364;49.084;9.978;2022-09-23T17:19:48;14.90;99.90
25438;DHT22;13364;49.084;9.978;2022-09-23T17:22:15;14.80;99.90
25438;DHT22;13364;49.084;9.978;2022-09-23T17:24:42;14.70;99.90
25438;DHT22;13364;49.084;9.978;2022-09-23T17:27:09;14.70;99.90
25438;DHT22;13364;49.084;9.978;2022-09-23T17:29:36;14.60;99.90
25438;DHT22;13364;49.084;9.978;2022-09-23T17:32:03;14.60;99.90
25438;DHT22;13364;49.084;9.978;2022-09-23T17:34:30;14.50;99.90
25438;DHT22;13364;49.084;9.978;2022-09-23T17:36:59;14.40;99.90
25438;DHT22;13364;49.084;9.978;2022-09-23T17:39:26;14.30;99.90
25438;DHT22;13364;49.084;9.978;2022-09-23T17:41:53;14.30;99.90
25438;DHT22;13364;49.084;9.978;2022-09-23T17:44:23;14.20;99.90
25438;DHT22;13364;49.084;9.978;2022-09-23T17:46:50;14.10;99.90
25438;DHT22;13364;49.084;9.978;2022-09-23T17:53:39;14.00;99.90
25438;DHT22;13364;49.084;9.978;2022-09-23T17:58:40;13.90;99.90
25438;DHT22;13364;49.084;9.978;2022-09-23T18:01:09;13.80;99.90
25438;DHT22;13364;49.084;9.978;2022-09-23T18:03:37;13.70;99.90
25438;DHT22;13364;49.084;9.978;2022-09-23T18:06:14;13.70;99.90
25438;DHT22;13364;49.084;9.978;2022-09-23T18:08:43;13.70;99.90
25438;DHT22;13364;49.084;9.978;2022-09-23T18:11:21;13.70;99.90
25438;DHT22;13364;49.084;9.978;2022-09-23T18:13:56;13.60;99.90
25438;DHT22;13364;49.084;9.978;2022-09-23T18:16:27;13.60;99.90
25438;DHT22;13364;49.084;9.978;2022-09-23T18:18:56;13.50;99.90
25438;DHT22;13364;49.084;9.978;2022-09-23T18:21:26;13.50;99.90
25438;DHT22;13364;49.084;9.978;2022-09-23T18:23:53;13.40;99.90
25438;DHT22;13364;49.084;9.978;2022-09-23T18:26:33;13.40;99.90
25438;DHT22;13364;49.084;9.978;2022-09-23T18:29:00;13.40;99.90
25438;DHT22;13364;49.084;9.978;2022-09-23T18:31:28;13.30;99.90
25438;DHT22;13364;49.084;9.978;2022-09-23T18:34:02;13.30;99.90
25438;DHT22;13364;49.084;9.978;2022-09-23T18:36:29;13.30;99.90
25438;DHT22;13364;49.084;9.978;2022-09-23T18:38:57;13.30;99.90
25438;DHT22;13364;49.084;9.978;2022-09-23T18:41:24;13.20;99.90
25438;DHT22;13364;49.084;9.978;2022-09-23T18:43:52;13.20;99.90
25438;DHT22;13364;49.084;9.978;2022-09-23T18:46:21;13.20;99.90
25438;DHT22;13364;49.084;9.978;2022-09-23T18:48:50;13.20;99.90
25438;DHT22;13364;49.084;9.978;2022-09-23T18:51:37;13.20;99.90
25438;DHT22;13364;49.084;9.978;2022-09-23T18:54:12;13.10;99.90
25438;DHT22;13364;49.084;9.978;2022-09-23T18:56:40;13.00;99.90
25438;DHT22;13364;49.084;9.978;2022-09-23T18:59:13;13.00;99.90
25438;DHT22;13364;49.084;9.978;2022-09-23T19:01:42;13.00;99.90
25438;DHT22;13364;49.084;9.978;2022-09-23T19:04:10;13.00;99.90
25438;DHT22;13364;49.084;9.978;2022-09-23T19:06:38;13.00;99.90
25438;DHT22;13364;49.084;9.978;2022-09-23T19:09:06;13.00;99.90
25438;DHT22;13364;49.084;9.978;2022-09-23T19:11:33;13.00;99.90
25438;DHT22;13364;49.084;9.978;2022-09-23T19:14:04;13.00;99.90
25438;DHT22;13364;49.084;9.978;2022-09-23T19:16:32;13.00;99.90
25438;DHT22;13364;49.084;9.978;2022-09-23T19:19:01;13.00;99.90
25438;DHT22;13364;49.084;9.978;2022-09-23T19:21:29;12.90;99.90
25438;DHT22;13364;49.084;9.978;2022-09-23T19:23:59;12.90;99.90